M I D A S
Marine Information and Data Acquisition System
Tripno 2261 of the Zeeleeuw from 2012-02-08 07:52:53 to 2012-02-08 13:34:05
Back to CruiseResearch ActivitiesStationsMapUnderway DataData graphs

EquipmentUnitsComment
TimeDGPSUTC
LatitudeDGPSDM.mWGS84
LongitudeDGPSDM.mWGS84
HeadingGyrodeg 
SOGDGPSknotsSpeed over ground
COGDGPSdegCourse over ground
DepthEcho soundermeters200 kHz
Missing or incorrect values are displayed as -999
Navigation data collected by the RV Zeeleeuw from 2012-02-08 07:32:44 to 2012-02-08 13:44:23
Time Latitude Longitude Heading SOG COG Depth
2012-02-08 07:33:49 51°13.637 2°56.019 126.4 0.1 5 -999
2012-02-08 07:34:49 51°13.635 2°56.019 126.4 0.2 182 -999
2012-02-08 07:35:50 51°13.636 2°56.018 126.4 -999 269 -999
2012-02-08 07:36:50 51°13.636 2°56.018 126.4 0.1 184 -999
2012-02-08 07:37:49 51°13.637 2°56.018 126.4 0.1 353 -999
2012-02-08 07:38:49 51°13.635 2°56.019 126.4 0.1 140 -999
2012-02-08 07:39:48 51°13.636 2°56.019 126.4 -999 333 -999
2012-02-08 07:40:48 51°13.636 2°56.018 126.4 0.2 201 -999
2012-02-08 07:41:49 51°13.636 2°56.019 126.4 -999 174 -999
2012-02-08 07:42:49 51°13.637 2°56.018 126.4 0.1 338 -999
2012-02-08 07:43:50 51°13.636 2°56.02 126.4 0.1 158 -999
2012-02-08 07:44:49 51°13.637 2°56.02 126.4 -999 286 -999
2012-02-08 07:45:49 51°13.636 2°56.019 126.4 0.1 114 -999
2012-02-08 07:46:49 51°13.636 2°56.018 126.5 -999 252 -999
2012-02-08 07:47:49 51°13.636 2°56.019 126.2 0.1 265 -999
2012-02-08 07:48:49 51°13.636 2°56.018 127 -999 317 -999
2012-02-08 07:49:49 51°13.636 2°56.018 129.7 0.2 147 -999
2012-02-08 07:50:50 51°13.636 2°56.019 123.9 -999 230 -999
2012-02-08 07:51:49 51°13.635 2°56.019 111.7 0.1 262 -999
2012-02-08 07:52:49 51°13.636 2°56.006 105.8 1.8 285 -999
2012-02-08 07:53:49 51°13.655 2°55.92 109.2 4.3 288 -999
2012-02-08 07:54:50 51°13.689 2°55.811 127.4 4.8 305 -999
2012-02-08 07:55:48 51°13.753 2°55.71 140.6 5.9 319 -999
2012-02-08 07:56:50 51°13.842 2°55.631 165.4 5.9 344 -999
2012-02-08 07:57:49 51°13.932 2°55.626 195.3 4.7 11 -999
2012-02-08 07:58:49 51°13.976 2°55.651 227.1 0.4 325 -999
2012-02-08 07:59:50 51°14 2°55.565 312.9 5.9 314 -999
2012-02-08 08:00:50 51°14.105 2°55.447 328.5 8.7 327 -999
2012-02-08 08:01:49 51°14.231 2°55.322 330.5 9.1 329 -999
2012-02-08 08:02:49 51°14.364 2°55.192 330 9.8 328 -999
2012-02-08 08:03:50 51°14.505 2°55.033 324.2 10.7 320 -999
2012-02-08 08:04:49 51°14.62 2°54.809 308.6 11.7 296 10.2
2012-02-08 08:05:49 51°14.609 2°54.507 251.9 12.3 243 9
2012-02-08 08:06:48 51°14.499 2°54.224 237.4 13.1 234 8.8
2012-02-08 08:07:46 51°14.385 2°53.933 240.4 13.6 237 8.4
2012-02-08 08:08:46 51°14.26 2°53.632 236.9 13.4 236 8.4
2012-02-08 08:09:46 51°14.131 2°53.336 237.3 13.4 236 8.4
2012-02-08 08:10:45 51°14.009 2°53.04 240.8 13.5 242 8.4
2012-02-08 08:11:45 51°13.894 2°52.73 238.6 13.8 238 9
2012-02-08 08:12:45 51°13.77 2°52.429 237.9 13.5 238 9.1
2012-02-08 08:13:45 51°13.663 2°52.112 244.6 13.7 243 9.3
2012-02-08 08:14:45 51°13.546 2°51.802 237.9 13.7 240 9.6
2012-02-08 08:15:45 51°13.417 2°51.504 237.4 13.8 240 9.6
2012-02-08 08:16:45 51°13.297 2°51.195 237.3 13.9 237 10
2012-02-08 08:17:46 51°13.16 2°50.884 233.6 14.3 236 9.9
2012-02-08 08:18:45 51°13.036 2°50.572 242.7 14.3 236 10
2012-02-08 08:19:45 51°12.909 2°50.26 236.7 13.9 235 10.1
2012-02-08 08:20:45 51°12.781 2°49.948 233.9 14.2 234 9.8
2012-02-08 08:21:45 51°12.654 2°49.634 236.8 14.1 237 9.9
2012-02-08 08:22:45 51°12.53 2°49.321 237.7 14 240 10.1
2012-02-08 08:23:45 51°12.421 2°49.005 243.3 13.5 236 10
2012-02-08 08:24:45 51°12.311 2°48.687 242.5 14.2 240 10.3
2012-02-08 08:25:45 51°12.199 2°48.364 243.7 13.9 242 10
2012-02-08 08:26:45 51°12.079 2°48.051 236.3 13.8 238 9.9
2012-02-08 08:27:45 51°11.964 2°47.735 242.5 13.8 241 9.6
2012-02-08 08:28:45 51°11.855 2°47.417 247.6 13.7 246 10
2012-02-08 08:29:45 51°11.776 2°47.083 249.8 13.5 248 9.9
2012-02-08 08:30:45 51°11.702 2°46.745 259.8 13.7 257 10
2012-02-08 08:31:45 51°11.666 2°46.382 266.2 14 260 11.2
2012-02-08 08:32:45 51°11.639 2°46.012 268.2 13.8 264 11.5
2012-02-08 08:33:46 51°11.617 2°45.638 268.3 13.9 265 11.9
2012-02-08 08:34:45 51°11.576 2°45.283 261.4 13.8 261 11.7
2012-02-08 08:35:45 51°11.545 2°44.926 268.2 13.6 259 12.1
2012-02-08 08:36:45 51°11.518 2°44.575 267.9 13.4 267 12.1
2012-02-08 08:37:45 51°11.493 2°44.22 267.7 13.4 265 11.9
2012-02-08 08:38:45 51°11.479 2°43.873 270.1 13.3 266 11.7
2012-02-08 08:39:45 51°11.469 2°43.529 271.2 12.8 264 10.8
2012-02-08 08:40:46 51°11.456 2°43.184 271.3 12.9 264 10.9
2012-02-08 08:41:45 51°11.439 2°42.846 266.7 12.8 262 10.2
2012-02-08 08:42:45 51°11.385 2°42.516 250.8 13.2 249 10.5
2012-02-08 08:43:45 51°11.298 2°42.201 249.4 12.9 248 11
2012-02-08 08:44:45 51°11.215 2°41.875 246.8 13.4 243 11.6
2012-02-08 08:45:45 51°11.095 2°41.578 237.4 13 238 11.1
2012-02-08 08:46:45 51°10.961 2°41.295 231.6 12.8 238 11.1
2012-02-08 08:47:46 51°10.832 2°40.994 231.7 13.7 234 12.4
2012-02-08 08:48:45 51°10.708 2°40.703 237.3 13.6 236 12.2
2012-02-08 08:49:46 51°10.583 2°40.392 237.9 13.8 239 12.5
2012-02-08 08:50:45 51°10.465 2°40.087 239.8 14 243 13.2
2012-02-08 08:51:45 51°10.38 2°39.756 250.9 13.7 252 13.3
2012-02-08 08:52:45 51°10.299 2°39.416 249.9 13.8 248 14.2
2012-02-08 08:53:45 51°10.215 2°39.082 249.8 13.5 250 14.1
2012-02-08 08:54:45 51°10.125 2°38.751 247.5 13.6 245 14.8
2012-02-08 08:55:46 51°10.037 2°38.406 250.9 13.9 250 14.9
2012-02-08 08:56:45 51°9.94 2°38.08 243.5 13.6 241 15.3
2012-02-08 08:57:45 51°9.829 2°37.755 239.8 14.1 243 15.6
2012-02-08 08:58:46 51°9.715 2°37.423 241.8 14 241 15.8
2012-02-08 08:59:45 51°9.614 2°37.096 244 13.9 245 15
2012-02-08 09:00:45 51°9.506 2°36.764 243.5 14.1 242 15.4
2012-02-08 09:01:45 51°9.399 2°36.428 243.7 14.4 240 15
2012-02-08 09:02:45 51°9.287 2°36.095 242.2 14.1 242 15.2
2012-02-08 09:03:46 51°9.181 2°35.758 245 14 243 15.7
2012-02-08 09:04:45 51°9.069 2°35.44 240.6 14.1 241 16.2
2012-02-08 09:05:46 51°8.957 2°35.109 244.5 13.9 244 15.8
2012-02-08 09:06:45 51°8.85 2°34.785 242.7 14.1 244 15.8
2012-02-08 09:07:45 51°8.742 2°34.453 246.4 14.3 241 16.6
2012-02-08 09:08:45 51°8.634 2°34.131 243.4 13.9 238 16.8
2012-02-08 09:09:45 51°8.547 2°33.798 255.3 13.7 253 16.3
2012-02-08 09:10:45 51°8.523 2°33.453 283.7 12.9 281 15.9
2012-02-08 09:11:46 51°8.657 2°33.228 346 11.5 339 17.3
2012-02-08 09:12:45 51°8.831 2°33.127 358.8 11.2 353 18.6
2012-02-08 09:13:45 51°8.973 2°33.253 47.1 10.2 42 17.6
2012-02-08 09:14:45 51°9.122 2°33.39 32.3 10.3 29 18.2
2012-02-08 09:15:45 51°9.268 2°33.555 46 10.8 44 16.6
2012-02-08 09:16:45 51°9.388 2°33.766 50.3 10.8 49 17.3
2012-02-08 09:17:45 51°9.516 2°33.96 43.1 10.6 40 14.7
2012-02-08 09:18:45 51°9.65 2°34.149 44.2 11 44 12.5
2012-02-08 09:19:45 51°9.785 2°34.343 45.6 11 45 11.7
2012-02-08 09:20:45 51°9.91 2°34.546 46.6 10.7 48 10.6
2012-02-08 09:21:46 51°10.038 2°34.746 45.3 10.4 43 11
2012-02-08 09:22:45 51°10.171 2°34.932 42 10.7 40 10.3
2012-02-08 09:23:45 51°10.302 2°35.121 44.5 10.6 42 10.4
2012-02-08 09:24:45 51°10.425 2°35.324 46.9 10.9 46 9.5
2012-02-08 09:25:45 51°10.544 2°35.529 45.7 10.4 44 9.7
2012-02-08 09:26:46 51°10.675 2°35.712 40.4 10.2 40 10.4
2012-02-08 09:27:45 51°10.814 2°35.866 34.2 10.2 30 10.4
2012-02-08 09:28:46 51°10.963 2°36.009 35.2 10.7 32 10
2012-02-08 09:29:45 51°11.104 2°36.168 38.6 10.6 37 11.3
2012-02-08 09:30:46 51°11.255 2°36.317 33.8 10.5 31 11.5
2012-02-08 09:31:45 51°11.396 2°36.47 37.7 10.6 35 10.9
2012-02-08 09:32:46 51°11.54 2°36.644 39.8 10.9 36 10.9
2012-02-08 09:33:45 51°11.686 2°36.8 34.7 10.7 34 11.2
2012-02-08 09:34:45 51°11.836 2°36.948 33.8 10.8 34 11.3
2012-02-08 09:35:45 51°11.98 2°37.104 37.1 10.2 35 10.6
2012-02-08 09:36:46 51°12.119 2°37.27 38.1 10.6 34 11.2
2012-02-08 09:37:45 51°12.263 2°37.417 34.5 10.5 33 11.9
2012-02-08 09:38:46 51°12.404 2°37.57 37.7 10.1 36 11.6
2012-02-08 09:39:46 51°12.544 2°37.731 37.3 10.8 35 11.9
2012-02-08 09:40:45 51°12.691 2°37.88 34.9 10.7 33 12.7
2012-02-08 09:41:46 51°12.836 2°38.037 38.6 10.6 38 13.2
2012-02-08 09:42:45 51°12.977 2°38.206 37.4 10.9 35 14
2012-02-08 09:43:45 51°13.124 2°38.361 35.1 10.2 32 14.2
2012-02-08 09:44:45 51°13.276 2°38.514 35 10.8 34 14
2012-02-08 09:45:46 51°13.424 2°38.688 39.7 10.6 38 15
2012-02-08 09:46:46 51°13.567 2°38.857 38.8 10.8 38 14.8
2012-02-08 09:47:45 51°13.696 2°39.046 45.8 11 45 14.1
2012-02-08 09:48:45 51°13.831 2°39.243 39.9 10.8 39 14.6
2012-02-08 09:49:45 51°13.973 2°39.416 39.2 10.8 38 13.1
2012-02-08 09:50:45 51°14.11 2°39.6 44.3 9.9 45 -999
2012-02-08 09:51:47 51°14.237 2°39.795 44.1 10.1 44 -999
2012-02-08 09:52:45 51°14.367 2°39.967 39.8 10.9 38 13.5
2012-02-08 09:53:46 51°14.517 2°40.145 39.5 10.9 37 13
2012-02-08 09:54:45 51°14.655 2°40.327 43.1 11 40 12.8
2012-02-08 09:55:46 51°14.785 2°40.52 42.4 10.2 41 -999
2012-02-08 09:56:45 51°14.915 2°40.692 39.7 10.5 39 12.3
2012-02-08 09:57:45 51°15.055 2°40.864 39.3 11 40 12.5
2012-02-08 09:58:45 51°15.187 2°41.046 42.5 10.4 41 12.2
2012-02-08 09:59:45 51°15.326 2°41.226 30.9 10.5 24 11.3
2012-02-08 10:00:45 51°15.497 2°41.251 1.4 10.6 356 11.5
2012-02-08 10:01:46 51°15.676 2°41.21 356.5 10.6 352 11.9
2012-02-08 10:02:46 51°15.852 2°41.157 352.1 10.9 345 13.2
2012-02-08 10:03:45 51°16.021 2°41.042 333.9 11.4 322 16.5
2012-02-08 10:04:46 51°16.104 2°40.759 282 12.8 273 19.3
2012-02-08 10:05:45 51°16.041 2°40.441 242.5 13.5 241 20
2012-02-08 10:06:46 51°15.902 2°40.156 234.7 13.6 228 20.2
2012-02-08 10:07:45 51°15.764 2°39.876 234.5 13.6 231 20
2012-02-08 10:08:45 51°15.623 2°39.594 233.3 13.6 231 20.1
2012-02-08 10:09:45 51°15.485 2°39.307 235.4 13.5 234 19.6
2012-02-08 10:10:45 51°15.345 2°39.015 236 13.6 233 19.1
2012-02-08 10:11:45 51°15.209 2°38.727 237.4 13.8 238 18.5
2012-02-08 10:12:45 51°15.07 2°38.443 235.8 13.4 232 16.9
2012-02-08 10:13:45 51°14.934 2°38.157 237.4 13 232 14.9
2012-02-08 10:14:45 51°14.798 2°37.875 237.9 12.9 234 12.8
2012-02-08 10:15:45 51°14.673 2°37.592 237.1 12.9 239 11.5
2012-02-08 10:16:45 51°14.558 2°37.296 245.1 12.4 235 11.1
2012-02-08 10:17:45 51°14.457 2°36.998 247.6 12 241 11.9
2012-02-08 10:18:45 51°14.357 2°36.705 244 12.3 239 10.3
2012-02-08 10:19:45 51°14.257 2°36.417 246.9 11.9 242 11.8
2012-02-08 10:20:46 51°14.156 2°36.125 248.1 12.1 241 13.6
2012-02-08 10:21:45 51°14.066 2°35.828 245.5 12.4 243 14.2
2012-02-08 10:22:46 51°13.965 2°35.531 245.2 12.8 241 14.1
2012-02-08 10:23:45 51°13.867 2°35.248 247.3 12.5 236 14.7
2012-02-08 10:24:45 51°13.771 2°34.958 244.2 12.3 240 13.8
2012-02-08 10:25:45 51°13.669 2°34.671 243.6 12.9 237 14.8
2012-02-08 10:26:45 51°13.557 2°34.392 240.1 13.3 240 16.2
2012-02-08 10:27:45 51°13.447 2°34.107 242.1 12.6 244 18.1
2012-02-08 10:28:45 51°13.338 2°33.824 242.5 13 235 20.7
2012-02-08 10:29:45 51°13.224 2°33.533 239.5 13.7 239 22.9
2012-02-08 10:30:45 51°13.111 2°33.256 241.9 12.7 240 23.9
2012-02-08 10:31:45 51°12.998 2°32.98 237.5 12.9 233 24.2
2012-02-08 10:32:45 51°12.877 2°32.705 233.1 12.8 230 24.5
2012-02-08 10:33:45 51°12.75 2°32.435 230.9 13.1 234 24.8
2012-02-08 10:34:46 51°12.632 2°32.152 240.3 12.5 234 24
2012-02-08 10:35:45 51°12.522 2°31.875 240.4 12.7 239 23.9
2012-02-08 10:36:46 51°12.402 2°31.594 237.9 12.7 237 25
2012-02-08 10:37:45 51°12.281 2°31.331 236.7 12.6 237 25
2012-02-08 10:38:46 51°12.159 2°31.059 238.4 12.7 234 24.4
2012-02-08 10:39:45 51°12.045 2°30.781 241.4 12.1 240 23.9
2012-02-08 10:40:45 51°11.925 2°30.511 241.4 12.1 234 23.8
2012-02-08 10:41:45 51°11.807 2°30.243 238.9 12.2 233 25.1
2012-02-08 10:42:45 51°11.691 2°29.979 238.2 11.5 240 24.7
2012-02-08 10:43:45 51°11.579 2°29.715 246.2 12.1 249 24.4
2012-02-08 10:44:45 51°11.515 2°29.416 258.5 11.8 251 25.1
2012-02-08 10:45:46 51°11.472 2°29.108 259.2 11.5 262 25.9
2012-02-08 10:46:45 51°11.436 2°28.815 262.1 11.8 261 26.2
2012-02-08 10:47:46 51°11.405 2°28.518 261.5 11 262 23.5
2012-02-08 10:48:46 51°11.384 2°28.232 272.4 11 276 25.3
2012-02-08 10:49:45 51°11.412 2°27.956 282.2 11.1 284 24.1
2012-02-08 10:50:46 51°11.446 2°27.669 277.8 10.8 275 21.9
2012-02-08 10:51:45 51°11.52 2°27.435 329.3 10.2 328 16.6
2012-02-08 10:52:46 51°11.687 2°27.317 331 11.1 328 12.8
2012-02-08 10:53:46 51°11.845 2°27.162 327.2 10.6 331 9.7
2012-02-08 10:54:46 51°12.002 2°27.011 330 11.4 327 13
2012-02-08 10:55:45 51°12.169 2°26.895 345.7 11.1 351 15.1
2012-02-08 10:56:45 51°12.362 2°26.919 12.1 12 15 20.1
2012-02-08 10:57:45 51°12.552 2°27.033 22.5 12.3 22 23.7
2012-02-08 10:58:45 51°12.731 2°27.186 31 11.8 34 26.5
2012-02-08 10:59:46 51°12.899 2°27.377 35.7 12.3 35 25.8
2012-02-08 11:00:46 51°13.052 2°27.569 40.1 11.3 42 25.6
2012-02-08 11:01:46 51°13.19 2°27.762 39.4 10.6 41 25.8
2012-02-08 11:02:47 51°13.329 2°27.924 32.4 10.6 34 24.8
2012-02-08 11:03:46 51°13.475 2°28.092 37 11.2 39 24.6
2012-02-08 11:04:45 51°13.613 2°28.272 36.8 10.7 39 23.7
2012-02-08 11:05:46 51°13.755 2°28.458 37.9 11.1 39 23
2012-02-08 11:06:46 51°13.901 2°28.633 34.5 10.9 35 25.3
2012-02-08 11:07:46 51°14.047 2°28.798 34.8 10.9 37 25.9
2012-02-08 11:08:45 51°14.189 2°28.971 36.3 11 37 26.1
2012-02-08 11:09:46 51°14.334 2°29.153 37.8 11.1 39 26.5
2012-02-08 11:10:45 51°14.473 2°29.334 37.1 10.6 37 27.2
2012-02-08 11:11:46 51°14.621 2°29.507 34.2 11 36 27.5
2012-02-08 11:12:46 51°14.773 2°29.678 34.9 11.7 36 28.4
2012-02-08 11:13:45 51°14.919 2°29.859 37.9 11.2 39 28.8
2012-02-08 11:14:46 51°15.064 2°30.05 37.2 10.7 38 29.4
2012-02-08 11:15:45 51°15.208 2°30.214 34.1 10.9 34 30.6
2012-02-08 11:16:46 51°15.362 2°30.387 36.9 11.4 39 29.9
2012-02-08 11:17:46 51°15.502 2°30.594 44 11.7 44 29.9
2012-02-08 11:18:46 51°15.641 2°30.809 42.2 11.7 43 31.1
2012-02-08 11:19:46 51°15.785 2°31.008 37.8 11.2 38 -999
2012-02-08 11:20:45 51°15.926 2°31.19 37.6 10.7 39 29.2
2012-02-08 11:21:46 51°16.072 2°31.39 42.2 11.7 42 29.7
2012-02-08 11:22:45 51°16.21 2°31.602 43.7 11.2 45 30.4
2012-02-08 11:23:45 51°16.345 2°31.8 38.3 11.2 40 30.1
2012-02-08 11:24:46 51°16.454 2°32.044 62.2 11.2 63 29.8
2012-02-08 11:25:45 51°16.538 2°32.319 64.5 12 65 28.7
2012-02-08 11:26:46 51°16.608 2°32.613 82.1 11.7 82 28.6
2012-02-08 11:27:46 51°16.552 2°32.898 125.8 11.6 123 29.3
2012-02-08 11:28:46 51°16.437 2°33.142 133.1 11.5 130 24.8
2012-02-08 11:29:45 51°16.317 2°33.376 132.5 11.7 125 12.6
2012-02-08 11:30:46 51°16.185 2°33.62 134.1 11.8 132 11.8
2012-02-08 11:31:46 51°16.052 2°33.861 134.4 11.9 128 12.2
2012-02-08 11:32:46 51°15.917 2°34.098 136.4 11.9 132 17.4
2012-02-08 11:33:46 51°15.785 2°34.334 136 11.7 133 26.7
2012-02-08 11:34:45 51°15.659 2°34.56 134.3 11.4 126 29.3
2012-02-08 11:35:46 51°15.577 2°34.833 104.7 11.5 95 31.1
2012-02-08 11:36:47 51°15.612 2°35.124 65.5 11.1 60 28.8
2012-02-08 11:37:47 51°15.742 2°35.305 32 10.9 32 29.9
2012-02-08 11:38:45 51°15.889 2°35.456 34.2 11 35 28.7
2012-02-08 11:39:46 51°16.038 2°35.63 37.3 10.6 36 29.7
2012-02-08 11:40:46 51°16.181 2°35.801 36.4 10.9 35 29.6
2012-02-08 11:41:46 51°16.331 2°35.988 40.5 11.3 41 29.4
2012-02-08 11:42:46 51°16.471 2°36.186 43.1 11.5 40 30.2
2012-02-08 11:43:46 51°16.608 2°36.368 38.9 10.1 41 -999
2012-02-08 11:44:47 51°16.748 2°36.552 39.3 10.8 38 30.3
2012-02-08 11:45:46 51°16.889 2°36.743 41.8 11.3 41 30.9
2012-02-08 11:46:47 51°17.026 2°36.939 41.5 10.2 40 29.6
2012-02-08 11:47:46 51°17.163 2°37.115 38.3 10.9 40 30.5
2012-02-08 11:48:46 51°17.3 2°37.3 40.6 10.9 42 30.5
2012-02-08 11:49:46 51°17.436 2°37.486 40.5 11.1 38 30.7
2012-02-08 11:50:45 51°17.583 2°37.665 40.5 11 39 31.8
2012-02-08 11:51:46 51°17.724 2°37.869 41.5 11.3 41 30
2012-02-08 11:52:45 51°17.862 2°38.048 39.5 10.6 38 29.7
2012-02-08 11:53:46 51°18.009 2°38.224 37.9 11.1 35 29.8
2012-02-08 11:54:46 51°18.161 2°38.409 40.4 11.3 39 29.3
2012-02-08 11:55:46 51°18.313 2°38.566 20 10.5 16 31.1
2012-02-08 11:56:46 51°18.474 2°38.517 328.3 10 328 30.6
2012-02-08 11:57:46 51°18.556 2°38.301 281 9.7 276 29.9
2012-02-08 11:58:46 51°18.545 2°38.043 258.6 9.9 261 28.7
2012-02-08 11:59:45 51°18.514 2°37.792 258.7 9.6 261 26.4
2012-02-08 12:00:46 51°18.481 2°37.533 258.4 10.2 255 27.3
2012-02-08 12:01:45 51°18.453 2°37.284 261.8 9.4 261 22.9
2012-02-08 12:02:46 51°18.421 2°37.03 257 9.8 252 23.6
2012-02-08 12:03:46 51°18.389 2°36.782 261.2 9.4 261 20.2
2012-02-08 12:04:46 51°18.36 2°36.534 265.3 9.4 265 21
2012-02-08 12:05:46 51°18.33 2°36.283 262 9.2 261 22
2012-02-08 12:06:46 51°18.299 2°36.034 259.7 9.9 253 25.4
2012-02-08 12:07:46 51°18.27 2°35.782 258.8 9.8 263 26.9
2012-02-08 12:08:46 51°18.242 2°35.537 262 9.3 263 27.2
2012-02-08 12:09:46 51°18.216 2°35.292 260.7 9.7 261 31.2
2012-02-08 12:10:46 51°18.232 2°35.049 289 9.7 293 30
2012-02-08 12:11:46 51°18.355 2°34.872 326.4 10.4 335 30.4
2012-02-08 12:12:47 51°18.53 2°34.824 354.6 10.7 358 29.8
2012-02-08 12:13:47 51°18.706 2°34.815 356.5 11 -999 26.5
2012-02-08 12:14:49 51°18.883 2°34.804 354.3 10.5 359 22.3
2012-02-08 12:15:47 51°19.061 2°34.802 358.1 11.3 1 21.8
2012-02-08 12:16:46 51°19.245 2°34.821 2.3 11.1 5 21
2012-02-08 12:17:45 51°19.422 2°34.836 358.9 10.4 2 17.4
2012-02-08 12:18:49 51°19.598 2°34.842 359.6 10.7 4 16.1
2012-02-08 12:19:48 51°19.772 2°34.869 2 10.5 6 -999
2012-02-08 12:20:49 51°19.941 2°34.889 359.9 9.9 2 20.1
2012-02-08 12:21:48 51°20.118 2°34.898 0.9 11 3 27.8
2012-02-08 12:22:47 51°20.293 2°34.913 359.4 10.5 2 31
2012-02-08 12:23:47 51°20.47 2°34.923 359.6 10.3 3 34
2012-02-08 12:24:45 51°20.637 2°34.953 13.3 11 18 32.6
2012-02-08 12:25:46 51°20.754 2°35.173 79.2 11.2 80 34.5
2012-02-08 12:26:46 51°20.687 2°35.427 137.1 10.9 126 27.3
2012-02-08 12:27:46 51°20.574 2°35.66 134 11.3 126 27.6
2012-02-08 12:28:46 51°20.458 2°35.896 134.9 11.4 128 22.2
2012-02-08 12:29:46 51°20.338 2°36.132 134.8 11.3 133 22.7
2012-02-08 12:30:46 51°20.223 2°36.373 129.7 11.4 128 24
2012-02-08 12:31:45 51°20.117 2°36.618 131.7 11.4 130 25.4
2012-02-08 12:32:46 51°20.003 2°36.868 131 11.6 132 25.4
2012-02-08 12:33:46 51°19.894 2°37.113 133 11.3 129 25.8
2012-02-08 12:34:46 51°19.783 2°37.358 130.5 11.1 123 25.5
2012-02-08 12:35:46 51°19.678 2°37.613 128.8 11.3 127 25.5
2012-02-08 12:36:46 51°19.581 2°37.874 127.2 11.6 119 24.9
2012-02-08 12:37:46 51°19.481 2°38.132 128.9 11.2 123 24.8
2012-02-08 12:38:46 51°19.38 2°38.387 129.3 11.4 120 27.8
2012-02-08 12:39:46 51°19.279 2°38.644 129.9 11.5 122 30.6
2012-02-08 12:40:46 51°19.176 2°38.895 129.2 11 125 32
2012-02-08 12:41:46 51°19.077 2°39.149 126.7 11.3 121 30.6
2012-02-08 12:42:46 51°18.983 2°39.41 126.4 11.2 122 29.8
2012-02-08 12:43:46 51°18.886 2°39.672 128.5 11.5 122 28
2012-02-08 12:44:46 51°18.782 2°39.934 127.4 11.5 123 27.6
2012-02-08 12:45:46 51°18.681 2°40.203 127.1 11.9 123 26.5
2012-02-08 12:46:46 51°18.568 2°40.49 127.4 13 123 18.9
2012-02-08 12:47:45 51°18.454 2°40.781 129.6 13.2 125 20.1
2012-02-08 12:48:46 51°18.334 2°41.081 129.1 13.5 124 22.1
2012-02-08 12:49:46 51°18.218 2°41.37 127.1 13.1 119 24.9
2012-02-08 12:50:46 51°18.102 2°41.661 127.9 13.1 122 26.3
2012-02-08 12:51:46 51°17.986 2°41.945 128.1 12.5 123 27.2
2012-02-08 12:52:46 51°17.871 2°42.224 126.2 12.3 125 27.1
2012-02-08 12:53:46 51°17.763 2°42.509 128.6 12.7 126 26.5
2012-02-08 12:54:46 51°17.655 2°42.796 127.3 12.8 114 23.8
2012-02-08 12:55:46 51°17.543 2°43.08 129.4 12.9 119 14.2
2012-02-08 12:56:46 51°17.424 2°43.364 126.4 12.5 124 15.2
2012-02-08 12:57:46 51°17.306 2°43.652 126.8 12.6 125 17.7
2012-02-08 12:58:46 51°17.184 2°43.931 131.3 12.5 128 18.9
2012-02-08 12:59:46 51°17.057 2°44.196 133.6 12.7 128 19
2012-02-08 13:00:45 51°16.928 2°44.448 135.2 11.9 132 18.7
2012-02-08 13:01:46 51°16.798 2°44.713 131.5 12.6 122 15.7
2012-02-08 13:02:46 51°16.674 2°44.978 133.6 12.6 125 12.5
2012-02-08 13:03:46 51°16.549 2°45.24 134.5 12.1 132 15
2012-02-08 13:04:46 51°16.426 2°45.502 127.4 12.3 124 14.3
2012-02-08 13:05:46 51°16.318 2°45.787 128.6 12.7 125 13.9
2012-02-08 13:06:46 51°16.214 2°46.075 126.3 12.4 122 13.8
2012-02-08 13:07:46 51°16.104 2°46.359 127.8 12.8 120 15.4
2012-02-08 13:08:46 51°16.019 2°46.675 115.5 12.9 112 17.8
2012-02-08 13:09:46 51°15.939 2°47.002 116.4 13.4 115 20
2012-02-08 13:10:46 51°15.851 2°47.327 118.3 13.6 113 19.2
2012-02-08 13:11:46 51°15.773 2°47.656 114 13.4 107 17.7
2012-02-08 13:12:46 51°15.702 2°47.991 113 13.3 110 16.2
2012-02-08 13:13:46 51°15.653 2°48.329 106 13.2 100 14.1
2012-02-08 13:14:45 51°15.612 2°48.661 104 13.2 99 13.6
2012-02-08 13:15:46 51°15.571 2°49.005 104.7 13.1 96 13.9
2012-02-08 13:16:46 51°15.526 2°49.346 105.1 13.3 101 15.7
2012-02-08 13:17:46 51°15.485 2°49.69 104.1 13.3 100 16.2
2012-02-08 13:18:46 51°15.467 2°50.041 98.1 13.2 94 16.3
2012-02-08 13:19:46 51°15.45 2°50.389 98.7 13.2 95 16
2012-02-08 13:20:46 51°15.426 2°50.736 101.1 13.2 101 16
2012-02-08 13:21:46 51°15.398 2°51.083 100.1 13.2 98 15.5
2012-02-08 13:22:46 51°15.372 2°51.431 102.1 13.1 95 15.5
2012-02-08 13:23:46 51°15.355 2°51.782 98.5 13.2 91 15.3
2012-02-08 13:24:46 51°15.333 2°52.132 102.8 13.2 97 15.1
2012-02-08 13:25:46 51°15.315 2°52.481 99.4 13.2 95 14.4
2012-02-08 13:26:46 51°15.283 2°52.823 103.6 13 98 14.3
2012-02-08 13:27:46 51°15.246 2°53.164 106.1 12.8 103 13.7
2012-02-08 13:28:46 51°15.198 2°53.504 110 13.5 101 13
2012-02-08 13:29:46 51°15.152 2°53.84 108.6 12.8 102 12.3
2012-02-08 13:30:46 51°15.102 2°54.172 112.3 13 109 12.2
2012-02-08 13:31:46 51°14.995 2°54.461 136.7 12.8 130 13.9
2012-02-08 13:32:49 51°14.84 2°54.71 148.4 12.9 140 -999
2012-02-08 13:33:49 51°14.683 2°54.924 152.6 12.4 140 14.2
2012-02-08 13:34:49 51°14.505 2°55.07 162.1 12.2 158 13.7
2012-02-08 13:35:49 51°14.339 2°55.218 149.6 10.4 151 -999
2012-02-08 13:36:49 51°14.202 2°55.347 151.7 9.1 153 -999
2012-02-08 13:37:49 51°14.067 2°55.448 155.7 9 156 13.2
2012-02-08 13:38:49 51°13.926 2°55.55 156.2 9.5 155 -999
2012-02-08 13:39:49 51°13.794 2°55.65 151.7 7.2 149 -999
2012-02-08 13:40:49 51°13.722 2°55.76 129.7 5.2 129 -999
2012-02-08 13:41:49 51°13.674 2°55.857 126.5 4.4 126 -999
2012-02-08 13:42:49 51°13.643 2°55.95 109.1 3.8 106 -999
2012-02-08 13:43:49 51°13.637 2°56.012 106.7 0.9 100 11.1